Time;durP1;ratioP1;P1;durP2;ratioP2;P2;SDS_P1;SDS_P2;PMS_P1;PMS_P2;Temp;Humidity;BMP_temperature;BMP_pressure;BME280_temperature;BME280_humidity;BME280_pressure;Samples;Min_cycle;Max_cycle;Signal;HPM_P1;HPM_P2
2022/08/10 00:00:22;;;;;;;6.40;3.00;;;;;;;19.08;87.40;97489.75;5028291;28;20472;-72
2022/08/10 00:02:56;;;;;;;7.50;3.10;;;;;;;19.02;88.68;97486.25;5029302;28;20053;-72
2022/08/10 00:05:22;;;;;;;8.73;3.28;;;;;;;18.95;89.63;97493.84;5030079;28;20151;-72
2022/08/10 00:07:48;;;;;;;5.97;3.00;;;;;;;18.93;89.79;97487.91;5028594;28;20033;-71
2022/08/10 00:10:16;;;;;;;5.10;3.00;;;;;;;18.90;88.35;97488.44;5028301;28;20126;-71
2022/08/10 00:12:45;;;;;;;10.48;3.60;;;;;;;18.80;89.00;97480.34;5028999;28;20363;-72
2022/08/10 00:15:14;;;;;;;6.13;2.75;;;;;;;18.79;91.14;97493.09;5029178;28;20040;-71
2022/08/10 00:17:40;;;;;;;6.05;3.28;;;;;;;18.68;91.59;97486.09;5027766;28;20039;-71
2022/08/10 00:20:06;;;;;;;10.65;3.10;;;;;;;18.64;90.42;97479.56;5027695;28;20313;-72
2022/08/10 00:22:32;;;;;;;8.40;3.53;;;;;;;18.55;92.12;97482.03;5027715;28;20411;-72
2022/08/10 00:24:58;;;;;;;5.47;2.90;;;;;;;18.47;92.85;97476.34;5028635;28;20140;-71
2022/08/10 00:27:24;;;;;;;10.25;3.55;;;;;;;18.40;93.07;97473.13;5028874;28;20473;-72
2022/08/10 00:29:50;;;;;;;6.82;3.22;;;;;;;18.38;92.28;97473.38;5020209;28;20060;-71
2022/08/10 00:32:16;;;;;;;6.72;3.30;;;;;;;18.41;91.38;97474.72;5026641;28;20036;-72
2022/08/10 00:34:41;;;;;;;6.50;3.28;;;;;;;18.30;93.31;97477.47;5028667;28;20072;-71
2022/08/10 00:37:07;;;;;;;7.68;3.00;;;;;;;18.25;93.50;97476.66;5028500;28;20148;-72
2022/08/10 00:39:32;;;;;;;5.88;3.10;;;;;;;18.30;91.42;97471.25;5028912;28;20280;-71
2022/08/10 00:41:58;;;;;;;5.78;3.20;;;;;;;18.30;91.98;97468.53;5028017;28;20037;-71
2022/08/10 00:44:23;;;;;;;6.35;3.35;;;;;;;18.26;92.53;97473.66;5028433;28;20064;-71
2022/08/10 00:46:49;;;;;;;6.43;3.08;;;;;;;18.17;93.76;97471.78;5027544;28;20044;-71
2022/08/10 00:49:14;;;;;;;5.35;3.17;;;;;;;18.14;92.74;97465.03;5027544;28;20102;-71
2022/08/10 00:51:40;;;;;;;6.07;3.10;;;;;;;18.10;93.90;97470.16;5027069;28;20025;-71
2022/08/10 00:54:07;;;;;;;9.70;3.20;;;;;;;18.08;92.49;97474.25;5028287;28;20120;-71
2022/08/10 00:56:34;;;;;;;5.38;3.10;;;;;;;18.02;92.88;97468.00;5027826;28;20317;-71
2022/08/10 00:58:59;;;;;;;5.97;3.28;;;;;;;18.08;92.05;97472.34;5027422;28;20345;-72
2022/08/10 01:01:25;;;;;;;5.05;3.15;;;;;;;18.05;94.44;97467.47;5027482;28;20037;-71
2022/08/10 01:03:51;;;;;;;11.50;3.30;;;;;;;17.99;93.63;97459.63;5029666;28;20029;-71
2022/08/10 01:06:42;;;;;;;6.15;3.17;;;;;;;18.02;94.41;97464.47;5027436;28;20036;-71
2022/08/10 01:09:22;;;;;;;6.85;3.35;;;;;;;18.02;93.56;97459.88;5027838;28;20487;-71
2022/08/10 01:12:27;;;;;;;8.65;3.45;;;;;;;17.96;95.10;97460.97;5026163;28;20492;-71
2022/08/10 01:15:09;;;;;;;6.18;3.20;;;;;;;17.87;94.60;97461.78;5016946;28;20040;-71
2022/08/10 01:17:59;;;;;;;5.88;3.35;;;;;;;17.73;95.84;97446.06;5028612;28;20064;-71
2022/08/10 01:20:34;;;;;;;8.15;3.28;;;;;;;17.74;95.32;97449.59;5026921;28;20431;-71
2022/08/10 01:23:24;;;;;;;7.65;3.10;;;;;;;17.71;94.93;97455.53;5028220;28;20078;-71
2022/08/10 01:26:14;;;;;;;6.10;3.00;;;;;;;17.71;95.96;97455.53;5026667;28;20057;-71
2022/08/10 01:29:01;;;;;;;8.43;3.05;;;;;;;17.65;96.88;97456.59;5027872;28;20061;-71
2022/08/10 01:31:32;;;;;;;6.47;3.33;;;;;;;17.63;96.21;97466.88;5026451;28;20053;-71
2022/08/10 01:34:06;;;;;;;8.85;3.25;;;;;;;17.67;94.60;97451.75;5026361;28;20499;-71
2022/08/10 01:36:50;;;;;;;6.45;3.17;;;;;;;17.64;96.49;97454.97;5027907;28;20044;-71
2022/08/10 01:39:22;;;;;;;8.02;3.20;;;;;;;17.63;96.35;97456.88;5026518;28;20128;-71
2022/08/10 01:41:53;;;;;;;7.00;3.33;;;;;;;17.61;96.00;97452.81;5026754;28;20364;-71
2022/08/10 01:44:27;;;;;;;6.90;3.35;;;;;;;17.63;95.50;97445.22;5017587;28;20083;-71
2022/08/10 01:48:27;;;;;;;7.22;3.10;;;;;;;17.56;95.72;97442.78;5026564;28;20896;-71
2022/08/10 01:49:45;;;;;;;6.20;3.30;;;;;;;17.59;94.97;97438.72;5025272;28;20039;-71
2022/08/10 01:52:14;;;;;;;7.28;3.33;;;;;;;17.58;94.65;97445.22;5026963;28;20255;-71
2022/08/10 01:54:41;;;;;;;8.93;3.10;;;;;;;17.58;95.01;97440.63;5026072;28;20431;-71
2022/08/10 01:57:08;;;;;;;7.47;3.20;;;;;;;17.60;94.93;97443.06;5025878;28;20036;-71
2022/08/10 01:59:37;;;;;;;5.90;3.22;;;;;;;17.57;95.71;97444.41;5025932;28;20076;-72
2022/08/10 02:02:08;;;;;;;8.13;3.30;;;;;;;17.57;95.84;97446.31;5026851;28;20636;-71
2022/08/10 02:04:36;;;;;;;7.85;3.25;;;;;;;17.55;94.95;97449.28;5027662;28;20127;-71
2022/08/10 02:07:07;;;;;;;4.65;3.00;;;;;;;17.51;95.94;97450.91;5026164;28;20033;-71
2022/08/10 02:09:41;;;;;;;4.68;2.78;;;;;;;17.50;94.95;97451.97;5026075;28;20041;-71
2022/08/10 02:12:11;;;;;;;6.60;3.05;;;;;;;17.47;94.70;97445.22;5024413;28;20668;-72
2022/08/10 02:14:44;;;;;;;9.77;3.35;;;;;;;17.43;96.44;97448.72;5026037;28;20114;-71
2022/08/10 02:17:12;;;;;;;5.63;3.20;;;;;;;17.36;95.43;97437.38;5025645;28;20028;-71
2022/08/10 02:19:39;;;;;;;9.13;3.35;;;;;;;17.39;96.74;97451.16;5024536;28;20362;-71
2022/08/10 02:22:07;;;;;;;5.60;2.83;;;;;;;17.39;96.59;97451.16;5024481;28;20048;-71
2022/08/10 02:24:35;;;;;;;4.97;3.13;;;;;;;17.39;95.96;97453.84;5024969;28;20226;-72
2022/08/10 02:27:01;;;;;;;9.52;3.35;;;;;;;17.36;96.55;97454.41;5026975;28;20070;-71
2022/08/10 02:29:28;;;;;;;8.43;3.47;;;;;;;17.35;96.75;97457.34;5024791;28;20040;-72
2022/08/10 02:31:55;;;;;;;8.57;3.20;;;;;;;17.36;96.32;97450.88;5009653;28;20045;-71
2022/08/10 02:34:24;;;;;;;8.23;3.55;;;;;;;17.33;96.22;97454.91;5025038;28;20439;-71
2022/08/10 02:36:52;;;;;;;7.25;3.28;;;;;;;17.35;96.50;97455.47;5023274;28;20033;-71
2022/08/10 02:39:20;;;;;;;9.15;3.17;;;;;;;17.37;95.27;97453.31;5025055;28;20479;-71
2022/08/10 02:41:54;;;;;;;5.15;3.13;;;;;;;17.35;96.02;97460.88;5026928;28;20696;-71
2022/08/10 02:45:07;;;;;;;10.35;3.20;;;;;;;17.28;97.22;97460.34;5026120;28;20045;-71
2022/08/10 02:47:40;;;;;;;10.23;3.40;;;;;;;17.25;96.79;97463.56;4984174;28;20531;-71
2022/08/10 02:50:30;;;;;;;8.60;3.08;;;;;;;17.22;97.18;97464.09;5020659;28;20037;-72
2022/08/10 02:53:00;;;;;;;6.03;3.20;;;;;;;17.23;96.79;97476.53;5018928;28;20570;-71
2022/08/10 02:55:39;;;;;;;6.43;3.22;;;;;;;17.17;96.65;97464.06;5023924;28;20049;-71
2022/08/10 02:58:21;;;;;;;6.43;3.85;;;;;;;17.14;97.86;97465.44;5024938;28;20567;-71
2022/08/10 03:00:52;;;;;;;4.53;2.92;;;;;;;17.11;97.79;97470.53;5024813;28;20044;-71
2022/08/10 03:03:24;;;;;;;7.57;3.47;;;;;;;17.08;96.18;97465.69;5023305;28;20033;-72
2022/08/10 03:05:55;;;;;;;11.95;3.75;;;;;;;17.03;97.02;97463.75;5024443;28;20048;-71
2022/08/10 03:08:26;;;;;;;7.15;3.40;;;;;;;17.01;97.74;97468.63;5024180;28;20047;-71
2022/08/10 03:10:53;;;;;;;7.57;3.28;;;;;;;17.03;96.99;97460.25;5026950;28;20087;-71
2022/08/10 03:13:21;;;;;;;7.32;3.70;;;;;;;16.93;98.49;97461.84;5024809;28;20419;-71
2022/08/10 03:15:49;;;;;;;10.43;3.22;;;;;;;16.96;97.94;97457.78;5020822;28;20155;-71
2022/08/10 03:18:25;;;;;;;11.32;3.75;;;;;;;16.92;99.59;97462.91;5029439;28;20213;-71
2022/08/10 03:20:53;;;;;;;7.18;3.33;;;;;;;16.88;98.76;97459.09;5045630;28;20131;-71
2022/08/10 03:23:22;;;;;;;7.50;3.60;;;;;;;16.85;98.23;97459.66;5029201;28;20056;-71
2022/08/10 03:25:51;;;;;;;9.15;3.25;;;;;;;16.82;98.98;97453.97;5028271;28;20458;-71
2022/08/10 03:28:18;;;;;;;10.48;3.42;;;;;;;16.83;97.29;97455.59;5030026;28;20033;-71
2022/08/10 03:30:44;;;;;;;7.68;3.22;;;;;;;16.79;99.51;97451.78;5029130;28;20185;-71
2022/08/10 03:33:11;;;;;;;9.57;3.40;;;;;;;16.82;98.67;97454.78;5029738;28;20032;-71
2022/08/10 03:35:36;;;;;;;8.07;3.70;;;;;;;16.80;99.10;97448.00;5027722;28;20629;-71
2022/08/10 03:38:02;;;;;;;6.57;3.38;;;;;;;16.76;99.71;97453.13;5031403;28;20032;-71
2022/08/10 03:40:31;;;;;;;8.23;3.42;;;;;;;16.73;99.95;97448.25;5027861;28;20083;-71
2022/08/10 03:42:57;;;;;;;5.95;3.17;;;;;;;16.75;98.44;97448.81;5030650;28;20115;-71
2022/08/10 03:45:25;;;;;;;10.35;3.80;;;;;;;16.75;98.93;97448.00;5027483;28;20044;-71
2022/08/10 03:47:54;;;;;;;9.50;3.17;;;;;;;16.64;99.56;97439.78;5028097;28;20137;-72
2022/08/10 03:50:21;;;;;;;7.47;3.70;;;;;;;16.69;99.52;97444.44;5044920;28;20515;-71
2022/08/10 03:52:47;;;;;;;7.45;3.53;;;;;;;16.70;99.37;97446.06;5028539;28;20597;-71
2022/08/10 03:55:14;;;;;;;8.27;3.28;;;;;;;16.67;98.58;97450.09;5028849;28;20298;-72
2022/08/10 03:57:39;;;;;;;11.07;3.67;;;;;;;16.67;98.78;97452.78;5028311;28;20380;-71
2022/08/10 04:00:07;;;;;;;7.10;3.40;;;;;;;16.66;98.46;97447.66;5027859;28;20518;-71
2022/08/10 04:02:33;;;;;;;9.52;3.58;;;;;;;16.60;99.20;97448.69;5027430;28;20041;-71
2022/08/10 04:04:58;;;;;;;7.72;3.33;;;;;;;16.63;99.17;97450.88;5029377;28;20388;-71
2022/08/10 04:07:25;;;;;;;14.95;3.83;;;;;;;16.62;99.43;97457.34;5028949;28;20059;-71
2022/08/10 04:09:52;;;;;;;5.82;3.60;;;;;;;16.63;99.10;97456.28;5027339;28;20087;-71
2022/08/10 04:12:18;;;;;;;8.40;3.70;;;;;;;16.60;99.38;97451.41;5029692;28;20622;-71
2022/08/10 04:14:44;;;;;;;7.20;3.67;;;;;;;16.58;100.00;97457.06;5028238;28;20037;-71
2022/08/10 04:17:09;;;;;;;9.90;3.55;;;;;;;16.60;98.60;97456.81;5027937;28;20029;-71
2022/08/10 04:19:47;;;;;;;8.20;3.50;;;;;;;16.61;99.46;97461.13;5028545;28;20098;-71
2022/08/10 04:22:19;;;;;;;10.10;3.65;;;;;;;16.55;99.83;97456.78;5029375;28;20036;-71
2022/08/10 04:24:47;;;;;;;10.27;3.50;;;;;;;16.56;98.36;97456.50;5027470;28;20813;-71
2022/08/10 04:27:13;;;;;;;8.88;3.80;;;;;;;16.54;99.01;97455.97;5027880;28;20336;-71
2022/08/10 04:29:39;;;;;;;6.35;3.33;;;;;;;16.51;99.34;97456.50;5028872;28;20458;-72
2022/08/10 04:32:07;;;;;;;9.13;3.88;;;;;;;16.55;99.45;97456.78;5026824;28;20029;-72
2022/08/10 04:34:34;;;;;;;9.15;4.10;;;;;;;16.53;99.50;97461.63;5028351;28;20521;-72
2022/08/10 04:37:04;;;;;;;11.48;3.40;;;;;;;16.55;99.88;97462.16;5028064;28;20282;-72
2022/08/10 04:39:29;;;;;;;9.18;3.65;;;;;;;16.56;100.00;97463.78;5027432;28;20402;-72
2022/08/10 04:41:55;;;;;;;13.25;3.53;;;;;;;16.55;100.00;97459.47;5028795;28;20028;-72
2022/08/10 04:44:22;;;;;;;6.93;3.50;;;;;;;16.54;99.87;97463.25;5028733;28;20269;-72
2022/08/10 04:46:47;;;;;;;7.50;3.72;;;;;;;16.54;99.85;97460.56;5025998;28;20033;-72
2022/08/10 04:49:13;;;;;;;6.90;3.53;;;;;;;16.59;99.05;97460.59;5027070;28;20037;-72
2022/08/10 04:51:38;;;;;;;6.22;3.90;;;;;;;16.61;100.00;97458.44;5029574;28;20033;-72
2022/08/10 04:54:06;;;;;;;6.25;3.40;;;;;;;16.62;100.00;97468.16;5027070;28;20417;-72
2022/08/10 04:56:35;;;;;;;9.23;3.45;;;;;;;16.66;99.10;97467.38;5027866;28;20555;-72
2022/08/10 04:59:01;;;;;;;10.90;3.60;;;;;;;16.69;100.00;97466.88;5027294;28;20193;-72
2022/08/10 05:01:28;;;;;;;9.20;3.53;;;;;;;16.73;99.63;97464.47;5025844;28;20037;-72
2022/08/10 05:03:53;;;;;;;8.90;3.58;;;;;;;16.74;99.29;97462.59;5028157;28;20414;-72
2022/08/10 05:06:18;;;;;;;6.28;3.75;;;;;;;16.75;99.05;97456.91;5027804;28;20271;-72
2022/08/10 05:08:44;;;;;;;6.78;3.38;;;;;;;16.80;99.69;97456.09;5028175;28;20496;-72
2022/08/10 05:11:09;;;;;;;13.30;3.60;;;;;;;16.87;98.52;97460.19;5028641;28;20505;-72
2022/08/10 05:13:35;;;;;;;6.30;3.70;;;;;;;16.90;98.67;97456.97;5026699;28;21029;-72
2022/08/10 05:16:00;;;;;;;14.45;3.65;;;;;;;16.97;99.68;97471.06;5027976;28;20045;-72
2022/08/10 05:18:26;;;;;;;8.20;3.70;;;;;;;17.01;99.38;97447.00;5025698;28;20745;-72
2022/08/10 05:20:51;;;;;;;8.68;3.60;;;;;;;17.02;99.95;97466.72;5028279;28;20270;-72
2022/08/10 05:23:17;;;;;;;6.85;3.45;;;;;;;17.10;98.83;97461.63;5028478;28;20044;-72
2022/08/10 05:25:42;;;;;;;8.75;3.53;;;;;;;17.19;97.44;97461.91;5027655;28;20084;-72
2022/08/10 05:28:08;;;;;;;7.55;4.03;;;;;;;17.17;98.55;97459.47;5042722;28;20119;-72
2022/08/10 05:30:33;;;;;;;8.48;3.20;;;;;;;17.20;99.65;97466.28;5026369;28;20223;-72
2022/08/10 05:32:59;;;;;;;9.73;3.47;;;;;;;17.22;98.51;97472.22;5028964;28;20087;-72
2022/08/10 05:35:25;;;;;;;12.98;3.78;;;;;;;17.24;99.23;97461.94;5027032;28;20056;-72
2022/08/10 05:37:51;;;;;;;7.75;3.33;;;;;;;17.31;98.61;97467.91;5028110;28;20607;-72
2022/08/10 05:40:17;;;;;;;7.05;3.80;;;;;;;17.39;99.39;97461.16;5025979;28;20411;-72
2022/08/10 05:42:43;;;;;;;6.40;3.40;;;;;;;17.48;98.24;97464.97;5029265;28;20273;-72
2022/08/10 05:45:18;;;;;;;9.75;3.38;;;;;;;17.57;97.17;97466.06;5028887;28;20040;-72
2022/08/10 05:47:43;;;;;;;6.85;3.92;;;;;;;17.65;97.41;97468.22;5028596;28;20345;-72
2022/08/10 05:50:10;;;;;;;7.78;3.67;;;;;;;17.75;96.83;97468.28;5027272;28;20037;-72
2022/08/10 05:52:36;;;;;;;7.15;3.50;;;;;;;17.86;96.01;97465.56;5028121;28;20441;-72
2022/08/10 05:55:01;;;;;;;10.77;3.60;;;;;;;17.95;96.79;97466.66;5028201;28;20037;-73
2022/08/10 05:57:27;;;;;;;9.95;3.75;;;;;;;18.06;95.21;97477.22;5026609;28;20159;-73
2022/08/10 06:00:03;;;;;;;10.55;5.25;;;;;;;18.17;95.27;97469.09;5028163;28;20036;-73
2022/08/10 06:02:46;;;;;;;8.25;3.35;;;;;;;18.23;95.68;97471.50;5026013;28;20408;-73
2022/08/10 06:05:26;;;;;;;21.75;4.30;;;;;;;18.34;95.11;97473.13;5026997;28;20430;-73
2022/08/10 06:07:58;;;;;;;11.55;3.90;;;;;;;18.42;94.91;97470.94;5027008;28;20068;-73
2022/08/10 06:10:24;;;;;;;9.27;3.80;;;;;;;18.50;94.14;97471.19;5027146;28;20109;-73
2022/08/10 06:14:59;;;;;;;14.15;3.60;;;;;;;18.60;94.34;97478.50;5031686;28;20116;-73
2022/08/10 06:15:38;;;;;;;7.18;4.10;;;;;;;18.71;94.73;97476.59;5027658;28;20063;-73
2022/08/10 06:18:05;;;;;;;9.90;3.78;;;;;;;18.79;93.58;97476.84;5026290;28;20561;-73
2022/08/10 06:20:31;;;;;;;5.65;3.63;;;;;;;18.89;91.62;97476.78;5028010;28;20466;-73
2022/08/10 06:22:59;;;;;;;6.70;3.40;;;;;;;18.97;91.49;97467.25;5029373;28;20125;-73
2022/08/10 06:25:26;;;;;;;6.10;3.65;;;;;;;19.02;91.58;97472.69;5027760;28;20052;-73
2022/08/10 06:27:53;;;;;;;9.60;3.88;;;;;;;19.11;92.86;97475.63;5026739;28;20044;-73
2022/08/10 06:30:20;;;;;;;7.25;3.40;;;;;;;19.23;91.26;97478.00;5025777;28;20064;-73
2022/08/10 06:32:48;;;;;;;7.85;3.70;;;;;;;19.33;91.44;97481.47;5025204;28;21263;-73
2022/08/10 06:35:15;;;;;;;7.75;3.47;;;;;;;19.40;90.45;97475.75;5027758;28;20040;-73
2022/08/10 06:37:43;;;;;;;6.50;3.05;;;;;;;19.47;88.66;97473.53;5026579;28;20059;-72
2022/08/10 06:40:10;;;;;;;11.52;3.78;;;;;;;19.56;87.99;97471.03;5026201;28;20049;-72
2022/08/10 06:42:40;;;;;;;10.75;4.07;;;;;;;19.68;87.35;97469.59;5026327;28;20044;-72
2022/08/10 06:45:15;;;;;;;7.25;3.90;;;;;;;19.75;87.32;97469.28;5026588;28;20040;-72
2022/08/10 06:47:50;;;;;;;9.90;3.30;;;;;;;19.82;85.69;97464.34;5027060;28;20036;-72
2022/08/10 06:50:34;;;;;;;9.57;3.42;;;;;;;19.89;85.23;97475.69;5027214;28;20411;-72
2022/08/10 06:53:01;;;;;;;7.20;3.38;;;;;;;19.98;85.21;97473.19;5028124;28;20502;-72
2022/08/10 06:55:30;;;;;;;8.43;3.28;;;;;;;20.07;84.72;97473.38;5025109;28;20125;-72
2022/08/10 06:57:59;;;;;;;6.13;3.20;;;;;;;20.12;83.04;97474.16;5028361;28;20052;-72
2022/08/10 07:00:28;;;;;;;7.03;3.47;;;;;;;20.15;82.07;97484.44;5031857;28;20051;-72
2022/08/10 07:02:59;;;;;;;13.40;3.90;;;;;;;20.19;83.05;97485.50;5032624;28;20041;-72
2022/08/10 07:05:27;;;;;;;6.97;3.60;;;;;;;20.25;83.01;97486.28;5031965;28;20398;-72
2022/08/10 07:07:59;;;;;;;11.85;3.92;;;;;;;20.34;82.44;97489.19;5030257;28;20036;-72
2022/08/10 07:10:25;;;;;;;8.43;3.30;;;;;;;20.41;80.23;97481.50;5031744;28;20144;-72
2022/08/10 07:12:55;;;;;;;7.22;3.55;;;;;;;20.49;81.88;97489.06;5030310;28;20036;-72
2022/08/10 07:15:23;;;;;;;7.13;3.63;;;;;;;20.57;81.07;97491.16;5029610;28;20615;-72
2022/08/10 07:17:51;;;;;;;9.63;3.85;;;;;;;20.68;81.18;97489.13;5029711;28;20076;-72
2022/08/10 07:20:19;;;;;;;9.73;3.40;;;;;;;20.74;80.03;97491.50;5028281;28;20037;-72
2022/08/10 07:22:51;;;;;;;10.95;3.92;;;;;;;20.82;79.49;97490.88;5030085;28;20094;-72
2022/08/10 07:25:20;;;;;;;8.45;3.38;;;;;;;20.93;82.61;97499.72;5029373;28;20126;-72
2022/08/10 07:27:46;;;;;;;8.40;3.13;;;;;;;21.04;78.98;97495.00;5031013;28;20059;-72
2022/08/10 07:30:12;;;;;;;13.05;3.53;;;;;;;21.11;76.92;97498.16;5030521;28;20048;-72
2022/08/10 07:32:40;;;;;;;7.88;3.40;;;;;;;21.18;76.94;97493.19;5029718;28;20053;-72
2022/08/10 07:35:08;;;;;;;12.48;3.60;;;;;;;21.32;77.45;97496.00;5030903;28;20095;-72
2022/08/10 07:37:35;;;;;;;6.93;3.53;;;;;;;21.40;75.81;97496.19;5031390;28;20041;-72
2022/08/10 07:40:03;;;;;;;11.70;3.08;;;;;;;21.46;72.70;97494.19;5031487;28;20428;-72
2022/08/10 07:42:31;;;;;;;8.20;3.03;;;;;;;21.55;73.26;97492.41;5032791;28;20051;-72
2022/08/10 07:44:57;;;;;;;11.95;3.20;;;;;;;21.56;73.17;97487.81;5028264;28;20041;-72
2022/08/10 07:47:36;;;;;;;5.57;3.33;;;;;;;21.65;73.94;97488.75;5031593;28;20402;-72
2022/08/10 07:50:06;;;;;;;6.32;3.80;;;;;;;21.68;73.64;97493.59;5032089;28;20045;-72
2022/08/10 07:52:33;;;;;;;7.70;3.85;;;;;;;21.77;73.47;97496.47;5031645;28;20029;-72
2022/08/10 07:55:02;;;;;;;6.93;3.20;;;;;;;21.85;73.13;97493.88;5031962;28;20222;-72
2022/08/10 07:57:31;;;;;;;11.70;3.40;;;;;;;21.92;71.41;97496.25;5032001;28;20041;-72
2022/08/10 08:00:09;;;;;;;5.38;3.08;;;;;;;22.01;71.11;97501.81;5030621;28;20248;-72
2022/08/10 08:02:44;;;;;;;;;;;;;;;22.07;71.19;97496.00;5034791;28;20049;-72
2022/08/10 08:05:12;;;;;;;6.50;2.72;;;;;;;22.09;62.43;97490.28;5034989;28;19925;-72
2022/08/10 08:07:39;;;;;;;8.13;3.17;;;;;;;22.20;64.36;97502.66;5035496;28;20375;-72
2022/08/10 08:10:07;;;;;;;18.17;3.28;;;;;;;22.28;66.02;97499.22;5035094;28;20064;-72
2022/08/10 08:12:34;;;;;;;5.30;2.90;;;;;;;22.38;64.89;97496.31;5035087;28;20056;-72
2022/08/10 08:15:01;;;;;;;7.07;2.88;;;;;;;22.57;69.00;97503.63;5035085;28;20044;-72
2022/08/10 08:17:26;;;;;;;11.40;3.30;;;;;;;22.63;65.63;97500.50;5035482;28;20447;-72
2022/08/10 08:19:56;;;;;;;6.10;3.08;;;;;;;22.66;61.20;97497.19;5036014;28;20040;-72
2022/08/10 08:22:23;;;;;;;6.47;3.10;;;;;;;22.74;63.51;97510.13;5036559;28;20048;-72
2022/08/10 08:24:51;;;;;;;8.27;3.28;;;;;;;22.86;62.41;97506.94;5035355;28;20052;-72
2022/08/10 08:27:21;;;;;;;8.55;3.20;;;;;;;22.88;61.94;97510.19;5034402;28;20124;-72
2022/08/10 08:29:49;;;;;;;9.17;2.83;;;;;;;22.99;57.29;97510.78;5034660;28;20230;-72
2022/08/10 08:32:17;;;;;;;5.43;3.42;;;;;;;22.99;57.62;97506.13;5032738;28;20626;-72
2022/08/10 08:34:45;;;;;;;8.68;3.22;;;;;;;23.08;58.01;97507.03;5034102;28;20041;-72
2022/08/10 08:37:13;;;;;;;4.63;2.70;;;;;;;23.16;56.59;97505.50;5033974;28;20557;-72
2022/08/10 08:39:40;;;;;;;5.38;2.95;;;;;;;23.38;57.71;97506.72;5031528;28;20045;-72
2022/08/10 08:42:14;;;;;;;9.30;2.55;;;;;;;23.43;54.72;97501.97;5035040;28;20041;-72
2022/08/10 08:44:42;;;;;;;8.25;2.85;;;;;;;23.50;51.29;97505.09;5035101;28;20475;-72
2022/08/10 08:47:33;;;;;;;5.63;2.53;;;;;;;23.60;53.08;97504.88;5034807;28;20128;-72
2022/08/10 08:50:16;;;;;;;13.40;2.85;;;;;;;23.66;49.51;97504.75;5033497;28;20064;-72
2022/08/10 08:53:13;;;;;;;10.20;2.83;;;;;;;23.70;48.76;97501.09;5033514;28;20696;-72
2022/08/10 08:55:50;;;;;;;5.95;2.90;;;;;;;23.86;47.93;97494.16;5033823;28;20033;-72
2022/08/10 08:58:27;;;;;;;14.07;3.42;;;;;;;23.96;48.31;97489.56;5032864;28;20053;-72
2022/08/10 09:01:12;;;;;;;6.55;2.97;;;;;;;24.06;45.93;97495.63;5034827;28;20087;-72
2022/08/10 09:04:02;;;;;;;10.10;3.30;;;;;;;24.14;46.21;97492.13;5033967;28;20048;-72
2022/08/10 09:07:06;;;;;;;8.68;2.95;;;;;;;24.11;46.31;97489.19;5033823;28;20049;-72
2022/08/10 09:09:36;;;;;;;6.85;2.67;;;;;;;24.20;46.83;97484.59;5035484;28;20475;-72
2022/08/10 09:12:37;;;;;;;7.25;2.45;;;;;;;24.24;43.62;97480.13;5034505;28;20566;-72
2022/08/10 09:15:24;;;;;;;6.75;3.30;;;;;;;24.30;42.95;97480.81;5028841;28;20060;-72
2022/08/10 09:18:19;;;;;;;5.85;3.30;;;;;;;24.36;43.69;97488.63;5034966;28;20118;-72
2022/08/10 09:20:59;;;;;;;8.63;3.25;;;;;;;24.51;42.56;97473.72;5033716;28;20051;-72
2022/08/10 09:23:34;;;;;;;11.50;3.40;;;;;;;24.59;42.28;97483.91;5033826;28;20144;-72
2022/08/10 09:26:20;;;;;;;9.82;3.30;;;;;;;24.59;41.72;97478.44;5035218;28;20061;-72
2022/08/10 09:28:48;;;;;;;4.80;3.15;;;;;;;24.67;43.02;97474.94;5033728;28;20780;-72
2022/08/10 09:31:19;;;;;;;8.93;3.25;;;;;;;24.83;42.58;97475.34;5034268;28;20059;-72
2022/08/10 09:34:15;;;;;;;11.95;3.95;;;;;;;25.01;43.05;97473.44;5032264;28;20734;-72
2022/08/10 09:37:12;;;;;;;8.27;3.70;;;;;;;25.26;39.99;97471.94;5033881;28;20466;-72
2022/08/10 09:40:02;;;;;;;6.85;3.58;;;;;;;25.55;38.26;97480.38;5032796;28;20059;-72
2022/08/10 09:42:39;;;;;;;7.00;3.42;;;;;;;25.54;38.87;97473.28;5031776;28;20396;-72
2022/08/10 09:45:17;;;;;;;14.10;3.80;;;;;;;25.54;40.33;97475.22;5030173;28;20045;-72
2022/08/10 09:48:01;;;;;;;5.95;3.45;;;;;;;25.57;37.81;97471.81;5031731;28;20096;-72
2022/08/10 09:50:47;;;;;;;6.05;3.40;;;;;;;25.71;39.74;97472.50;5030559;28;20102;-72
2022/08/10 09:53:53;;;;;;;12.73;3.63;;;;;;;25.82;40.42;97475.72;5029643;28;20895;-72
2022/08/10 09:56:46;;;;;;;6.47;3.30;;;;;;;25.98;39.73;97465.06;5029888;28;20068;-72
2022/08/10 09:59:20;;;;;;;7.32;3.28;;;;;;;26.18;36.63;97458.13;5031435;28;20119;-72
2022/08/10 10:01:59;;;;;;;6.70;2.90;;;;;;;26.05;35.95;97462.66;5030938;28;20546;-72
2022/08/10 10:04:30;;;;;;;8.80;3.20;;;;;;;26.11;36.84;97459.41;5032728;28;20033;-72
2022/08/10 10:07:04;;;;;;;6.05;2.70;;;;;;;26.02;36.58;97455.88;5035272;28;20101;-72
2022/08/10 10:09:47;;;;;;;5.35;3.30;;;;;;;25.95;36.94;97458.31;5031385;28;20033;-72
2022/08/10 10:12:21;;;;;;;8.65;3.67;;;;;;;26.27;36.09;97456.16;5033813;28;20037;-72
2022/08/10 10:15:21;;;;;;;8.93;3.83;;;;;;;26.19;35.76;97448.75;5032931;28;20268;-72
2022/08/10 10:18:00;;;;;;;6.18;3.25;;;;;;;26.40;35.03;97435.19;5033216;28;21548;-72
2022/08/10 10:20:48;;;;;;;7.90;3.38;;;;;;;26.35;33.69;97436.13;5032517;28;20506;-72
2022/08/10 10:23:31;;;;;;;7.15;3.03;;;;;;;26.38;34.62;97451.91;5032630;28;20499;-72
2022/08/10 10:26:21;;;;;;;5.82;3.03;;;;;;;26.28;33.95;97444.06;5032644;28;20067;-72
2022/08/10 10:29:02;;;;;;;7.80;3.13;;;;;;;26.62;36.35;97446.75;5026416;28;20152;-72
2022/08/10 10:31:34;;;;;;;;;;;;;;;26.94;34.13;97450.00;5031839;28;20295;-72
2022/08/10 10:34:24;;;;;;;7.15;3.20;;;;;;;26.99;32.79;97446.22;5033233;28;19932;-72
2022/08/10 10:36:51;;;;;;;9.13;3.40;;;;;;;26.54;34.12;97438.53;4333757;28;10000344;-72
2022/08/10 10:39:20;;;;;;;7.20;3.47;;;;;;;26.55;34.37;97429.16;5028168;28;20493;-72
2022/08/10 10:41:48;;;;;;;5.85;3.40;;;;;;;26.74;35.27;97426.00;5028223;28;20249;-72
2022/08/10 10:44:43;;;;;;;12.93;3.17;;;;;;;27.39;34.39;97421.94;5028858;28;20047;-72
2022/08/10 10:47:12;;;;;;;6.88;3.40;;;;;;;27.90;33.49;97426.25;4999849;28;20053;-72
2022/08/10 10:49:55;;;;;;;12.80;3.17;;;;;;;28.04;32.00;97424.00;5025851;28;20476;-72
2022/08/10 10:52:57;;;;;;;8.38;3.30;;;;;;;28.48;32.82;97418.88;5028285;28;20505;-72
2022/08/10 10:55:27;;;;;;;5.60;2.97;;;;;;;28.66;31.98;97408.44;4996439;28;20533;-72
2022/08/10 10:58:18;;;;;;;7.28;3.10;;;;;;;28.61;30.75;97407.88;5026943;28;20450;-72
2022/08/10 11:01:09;;;;;;;9.77;3.30;;;;;;;29.19;30.67;97405.81;5026139;28;20044;-71
2022/08/10 11:04:07;;;;;;;6.57;3.42;;;;;;;29.42;29.44;97406.94;5027114;28;20051;-72
2022/08/10 11:06:59;;;;;;;9.20;3.08;;;;;;;30.63;28.01;97390.97;5026520;28;20087;-72
2022/08/10 11:09:36;;;;;;;8.98;3.15;;;;;;;30.69;27.48;97402.59;5027878;28;20032;-72
2022/08/10 11:12:28;;;;;;;10.70;4.65;;;;;;;32.27;26.02;97394.56;5029126;28;20130;-72
2022/08/10 11:15:01;;;;;;;9.10;3.25;;;;;;;33.19;24.27;97392.56;5027577;28;20217;-72
2022/08/10 11:17:30;;;;;;;8.23;3.28;;;;;;;34.46;23.17;97389.00;5028293;28;20052;-72
2022/08/10 11:20:06;;;;;;;9.05;3.17;;;;;;;35.24;22.69;97382.47;5025682;28;20102;-72
2022/08/10 11:25:43;;;;;;;9.45;3.33;;;;;;;37.51;19.86;97375.72;5167592;22;20059;-80
2022/08/10 11:31:18;;;;;;;6.15;3.10;;;;;;;38.38;18.11;97378.53;3557868;22;20037;-82
2022/08/10 11:33:55;;;;;;;9.13;3.33;;;;;;;40.74;17.06;97373.88;4999178;28;20904;-82
2022/08/10 11:36:26;;;;;;;10.45;3.72;;;;;;;42.14;14.99;97370.03;5068387;22;20724;-73
2022/08/10 11:39:12;;;;;;;7.03;3.05;;;;;;;42.63;15.40;97369.31;5013694;28;20060;-73
2022/08/10 11:41:49;;;;;;;8.40;3.10;;;;;;;42.61;15.31;97377.41;5009408;28;20045;-73
2022/08/10 11:44:42;;;;;;;6.78;3.03;;;;;;;43.53;14.65;97371.41;5014346;28;20043;-73
2022/08/10 11:47:16;;;;;;;8.25;2.97;;;;;;;42.31;14.80;97368.03;5013057;28;20095;-73
2022/08/10 11:50:05;;;;;;;8.52;3.20;;;;;;;41.88;15.38;97373.81;5017065;28;20041;-73
2022/08/10 11:52:43;;;;;;;5.72;3.22;;;;;;;41.61;15.41;97365.50;5032229;28;20052;-73
2022/08/10 11:55:15;;;;;;;7.25;2.90;;;;;;;41.90;15.87;97365.72;5007217;28;20054;-73
2022/08/10 11:57:42;;;;;;;12.18;3.70;;;;;;;41.95;15.61;97366.03;5015772;28;20099;-73
2022/08/10 12:00:09;;;;;;;5.20;3.00;;;;;;;43.47;14.99;97357.09;5004146;28;20215;-73
2022/08/10 12:02:47;;;;;;;5.68;2.88;;;;;;;44.99;14.27;97359.25;4983106;28;20046;-73